GIA649 WAEE-WIII
Flight info
| Callsign | GIA649 |
|---|---|
| Flight time | N/A |
| Altitude | 34000 |
| Route | TELES A450 MKS T6 KURUS |
| Aircraft | B738/M-SDE2E3FGHIRWXY/LB1 |
Departure
| Time | 2026-04-28 00:16 |
|---|---|
| Airport | Sultan Babullah Airport (WAEE) |
Arrival
| Time | N/A |
|---|---|
| Airport | Soekarno-Hatta International Airport (WIII) |
| Time | Latitude | Longitude | Altitude | Speed | Heading |
|---|---|---|---|---|---|
| 2026-04-27 23:54 | 0.83366 | 127.37734 | 87 ft | 0 kts | 231° |
| 2026-04-28 00:08 | 0.83377 | 127.37748 | 89 ft | 3 kts | 230° |
| 2026-04-28 00:09 | 0.83391 | 127.37763 | 88 ft | 3 kts | 228° |
| 2026-04-28 00:09 | 0.83403 | 127.37778 | 89 ft | 1 kts | 227° |
| 2026-04-28 00:09 | 0.83404 | 127.37778 | 89 ft | 1 kts | 227° |
| 2026-04-28 00:11 | 0.83400 | 127.37776 | 89 ft | 2 kts | 205° |
| 2026-04-28 00:12 | 0.83390 | 127.37812 | 85 ft | 15 kts | 99° |
| 2026-04-28 00:12 | 0.83313 | 127.37867 | 87 ft | 18 kts | 145° |
| 2026-04-28 00:12 | 0.83228 | 127.37940 | 85 ft | 10 kts | 103° |
| 2026-04-28 00:12 | 0.83253 | 127.37995 | 87 ft | 10 kts | 51° |
| 2026-04-28 00:13 | 0.83257 | 127.38047 | 82 ft | 8 kts | 133° |
| 2026-04-28 00:13 | 0.83179 | 127.38110 | 84 ft | 20 kts | 141° |
| 2026-04-28 00:13 | 0.83045 | 127.38218 | 80 ft | 30 kts | 141° |
| 2026-04-28 00:13 | 0.82885 | 127.38345 | 73 ft | 28 kts | 141° |
| 2026-04-28 00:14 | 0.82728 | 127.38471 | 71 ft | 29 kts | 140° |
| 2026-04-28 00:14 | 0.82567 | 127.38600 | 74 ft | 29 kts | 141° |
| 2026-04-28 00:14 | 0.82417 | 127.38736 | 72 ft | 27 kts | 121° |
| 2026-04-28 00:14 | 0.82365 | 127.38782 | 75 ft | 4 kts | 195° |
| 2026-04-28 00:15 | 0.82358 | 127.38768 | 73 ft | 3 kts | 264° |
| 2026-04-28 00:15 | 0.82373 | 127.38755 | 77 ft | 9 kts | 321° |
| 2026-04-28 00:15 | 0.82637 | 127.38544 | 73 ft | 89 kts | 321° |
| 2026-04-28 00:15 | 0.83315 | 127.38002 | 83 ft | 158 kts | 321° |
| 2026-04-28 00:16 | 0.84293 | 127.37215 | 459 ft | 189 kts | 322° |
| 2026-04-28 00:16 | 0.85305 | 127.36483 | 1587 ft | 177 kts | 337° |
| 2026-04-28 00:16 | 0.86556 | 127.36308 | 2155 ft | 194 kts | 1° |
| 2026-04-28 00:16 | 0.88001 | 127.36301 | 2390 ft | 221 kts | 0° |
| 2026-04-28 00:17 | 0.89614 | 127.36264 | 2675 ft | 239 kts | 359° |
| 2026-04-28 00:17 | 0.91299 | 127.36182 | 3252 ft | 246 kts | 357° |
| 2026-04-28 00:17 | 0.92806 | 127.36080 | 3914 ft | 247 kts | 357° |
| 2026-04-28 00:17 | 0.94516 | 127.35946 | 4746 ft | 247 kts | 356° |
| 2026-04-28 00:18 | 0.96237 | 127.35803 | 5502 ft | 250 kts | 356° |
| 2026-04-28 00:18 | 0.97978 | 127.35636 | 6235 ft | 254 kts | 350° |
| 2026-04-28 00:18 | 0.99563 | 127.34904 | 6899 ft | 260 kts | 320° |
| 2026-04-28 00:18 | 1.00640 | 127.33376 | 7350 ft | 279 kts | 289° |
| 2026-04-28 00:19 | 1.00836 | 127.31398 | 7803 ft | 293 kts | 269° |
| 2026-04-28 00:19 | 1.00782 | 127.29366 | 8453 ft | 298 kts | 269° |
| 2026-04-28 00:19 | 1.00727 | 127.27283 | 9161 ft | 301 kts | 269° |
| 2026-04-28 00:19 | 1.00687 | 127.25174 | 9859 ft | 305 kts | 270° |
| 2026-04-28 00:20 | 1.00659 | 127.23032 | 10377 ft | 315 kts | 270° |
| 2026-04-28 00:20 | 1.00635 | 127.20761 | 10525 ft | 338 kts | 270° |
| 2026-04-28 00:20 | 1.00293 | 127.18377 | 10667 ft | 359 kts | 250° |
| 2026-04-28 00:20 | 0.98980 | 127.16228 | 11047 ft | 367 kts | 224° |
| 2026-04-28 00:21 | 0.96875 | 127.14817 | 11620 ft | 367 kts | 199° |
| 2026-04-28 00:21 | 0.94400 | 127.14201 | 12254 ft | 367 kts | 189° |
| 2026-04-28 00:21 | 0.91865 | 127.13750 | 12828 ft | 371 kts | 188° |
| 2026-04-28 00:21 | 0.89305 | 127.13317 | 13375 ft | 375 kts | 188° |
| 2026-04-28 00:22 | 0.86724 | 127.12869 | 13915 ft | 378 kts | 188° |
| 2026-04-28 00:22 | 0.84123 | 127.12402 | 14439 ft | 381 kts | 188° |
| 2026-04-28 00:22 | 0.81519 | 127.11922 | 14967 ft | 383 kts | 189° |
| 2026-04-28 00:22 | 0.78888 | 127.11430 | 15460 ft | 386 kts | 189° |
| 2026-04-28 00:23 | 0.76262 | 127.10936 | 15941 ft | 389 kts | 189° |
| 2026-04-28 00:23 | 0.73594 | 127.10435 | 16417 ft | 392 kts | 189° |
| 2026-04-28 00:23 | 0.70917 | 127.09882 | 16893 ft | 396 kts | 193° |
| 2026-04-28 00:23 | 0.68256 | 127.09107 | 17364 ft | 399 kts | 197° |
| 2026-04-28 00:24 | 0.65610 | 127.08218 | 17819 ft | 403 kts | 198° |
| 2026-04-28 00:24 | 0.62952 | 127.07290 | 18261 ft | 406 kts | 198° |
| 2026-04-28 00:24 | 0.60277 | 127.06356 | 18650 ft | 409 kts | 198° |
| 2026-04-28 00:24 | 0.57582 | 127.05428 | 19062 ft | 410 kts | 197° |
| 2026-04-28 00:25 | 0.54864 | 127.04507 | 19458 ft | 413 kts | 197° |
| 2026-04-28 00:25 | 0.52132 | 127.03592 | 19850 ft | 415 kts | 197° |
| 2026-04-28 00:25 | 0.49381 | 127.02679 | 20223 ft | 417 kts | 197° |
| 2026-04-28 00:25 | 0.46619 | 127.01766 | 20604 ft | 420 kts | 197° |
| 2026-04-28 00:26 | 0.43832 | 127.00847 | 20979 ft | 422 kts | 196° |
| 2026-04-28 00:26 | 0.41071 | 126.99937 | 21350 ft | 424 kts | 196° |
| 2026-04-28 00:26 | 0.38263 | 126.99013 | 21711 ft | 427 kts | 196° |
| 2026-04-28 00:26 | 0.35443 | 126.98084 | 22062 ft | 429 kts | 196° |
| 2026-04-28 00:27 | 0.32586 | 126.97142 | 22407 ft | 432 kts | 196° |
| 2026-04-28 00:27 | 0.29728 | 126.96185 | 22738 ft | 435 kts | 199° |
| 2026-04-28 00:27 | 0.26966 | 126.94844 | 22839 ft | 446 kts | 210° |
| 2026-04-28 00:27 | 0.24465 | 126.92985 | 23086 ft | 451 kts | 220° |
| 2026-04-28 00:28 | 0.22235 | 126.90768 | 23423 ft | 453 kts | 225° |
| 2026-04-28 00:28 | 0.20055 | 126.88490 | 23702 ft | 455 kts | 225° |
| 2026-04-28 00:28 | 0.17869 | 126.86188 | 23943 ft | 457 kts | 225° |
| 2026-04-28 00:28 | 0.15675 | 126.83883 | 24200 ft | 458 kts | 225° |
| 2026-04-28 00:29 | 0.13467 | 126.81576 | 24454 ft | 460 kts | 225° |
| 2026-04-28 00:29 | 0.11275 | 126.79298 | 24700 ft | 461 kts | 224° |
| 2026-04-28 00:29 | 0.09041 | 126.76986 | 24964 ft | 462 kts | 224° |
| 2026-04-28 00:29 | 0.06800 | 126.74674 | 25229 ft | 463 kts | 224° |
| 2026-04-28 00:30 | 0.04549 | 126.72354 | 25476 ft | 465 kts | 224° |
| 2026-04-28 00:30 | 0.02293 | 126.70031 | 25712 ft | 466 kts | 224° |
| 2026-04-28 00:30 | 0.00028 | 126.67698 | 25945 ft | 468 kts | 224° |
| 2026-04-28 00:30 | -0.02245 | 126.65357 | 26154 ft | 470 kts | 224° |
| 2026-04-28 00:31 | -0.04525 | 126.63008 | 26389 ft | 471 kts | 224° |
| 2026-04-28 00:31 | -0.06809 | 126.60655 | 26625 ft | 473 kts | 224° |
| 2026-04-28 00:31 | -0.09106 | 126.58289 | 26845 ft | 474 kts | 224° |
| 2026-04-28 00:31 | -0.11405 | 126.55919 | 27055 ft | 476 kts | 224° |
| 2026-04-28 00:32 | -0.13714 | 126.53540 | 27264 ft | 477 kts | 224° |
| 2026-04-28 00:32 | -0.16026 | 126.51157 | 27466 ft | 479 kts | 224° |
| 2026-04-28 00:32 | -0.18350 | 126.48762 | 27671 ft | 480 kts | 224° |
| 2026-04-28 00:32 | -0.20648 | 126.46393 | 27880 ft | 481 kts | 224° |
| 2026-04-28 00:33 | -0.22980 | 126.43990 | 28079 ft | 483 kts | 224° |
| 2026-04-28 00:33 | -0.25321 | 126.41577 | 28270 ft | 484 kts | 224° |
| 2026-04-28 00:33 | -0.27673 | 126.39153 | 28452 ft | 486 kts | 224° |
| 2026-04-28 00:33 | -0.30027 | 126.36728 | 28652 ft | 487 kts | 224° |
| 2026-04-28 00:34 | -0.32390 | 126.34293 | 28819 ft | 488 kts | 224° |
| 2026-04-28 00:34 | -0.34761 | 126.31850 | 28986 ft | 490 kts | 224° |
| 2026-04-28 00:34 | -0.37136 | 126.29401 | 29157 ft | 491 kts | 224° |
| 2026-04-28 00:34 | -0.39520 | 126.26945 | 29358 ft | 492 kts | 224° |
| 2026-04-28 00:35 | -0.41900 | 126.24491 | 29617 ft | 491 kts | 224° |
| 2026-04-28 00:35 | -0.44271 | 126.22048 | 29904 ft | 490 kts | 224° |
| 2026-04-28 00:35 | -0.46643 | 126.19603 | 30142 ft | 489 kts | 224° |
| 2026-04-28 00:35 | -0.49005 | 126.17168 | 30354 ft | 489 kts | 224° |
| 2026-04-28 00:36 | -0.51367 | 126.14733 | 30561 ft | 488 kts | 224° |
| 2026-04-28 00:36 | -0.53700 | 126.12329 | 30791 ft | 487 kts | 224° |
| 2026-04-28 00:36 | -0.56059 | 126.09897 | 31021 ft | 487 kts | 224° |
| 2026-04-28 00:36 | -0.58420 | 126.07465 | 31244 ft | 486 kts | 224° |
| 2026-04-28 00:37 | -0.60772 | 126.05040 | 31484 ft | 485 kts | 224° |
| 2026-04-28 00:37 | -0.63118 | 126.02622 | 31719 ft | 485 kts | 224° |
| 2026-04-28 00:37 | -0.65469 | 126.00199 | 31929 ft | 484 kts | 224° |
| 2026-04-28 00:37 | -0.67813 | 125.97783 | 32175 ft | 484 kts | 224° |
| 2026-04-28 00:38 | -0.70151 | 125.95373 | 32410 ft | 483 kts | 224° |
| 2026-04-28 00:38 | -0.72493 | 125.92959 | 32647 ft | 483 kts | 224° |
| 2026-04-28 00:38 | -0.74829 | 125.90551 | 32887 ft | 482 kts | 224° |
| 2026-04-28 00:38 | -0.77164 | 125.88144 | 33119 ft | 481 kts | 224° |
| 2026-04-28 00:39 | -0.79495 | 125.85741 | 33363 ft | 481 kts | 224° |
| 2026-04-28 00:39 | -0.81815 | 125.83349 | 33592 ft | 480 kts | 224° |
| 2026-04-28 00:39 | -0.84142 | 125.80951 | 33837 ft | 480 kts | 224° |
| 2026-04-28 00:40 | -0.88812 | 125.76137 | 33908 ft | 482 kts | 224° |
| 2026-04-28 00:40 | -0.93466 | 125.71340 | 33906 ft | 479 kts | 224° |
| 2026-04-28 00:41 | -0.97314 | 125.67371 | 33910 ft | 477 kts | 224° |
| 2026-04-28 00:41 | -1.01920 | 125.62622 | 33905 ft | 475 kts | 224° |
| 2026-04-28 00:42 | -1.06518 | 125.57882 | 33914 ft | 474 kts | 224° |
| 2026-04-28 00:42 | -1.11104 | 125.53154 | 33913 ft | 474 kts | 224° |
| 2026-04-28 00:43 | -1.15712 | 125.48403 | 33912 ft | 475 kts | 224° |
| 2026-04-28 00:43 | -1.20318 | 125.43653 | 33913 ft | 477 kts | 224° |
| 2026-04-28 00:44 | -1.24943 | 125.38884 | 33914 ft | 478 kts | 224° |
| 2026-04-28 00:44 | -1.29579 | 125.34103 | 33915 ft | 480 kts | 224° |
| 2026-04-28 00:45 | -1.34235 | 125.29300 | 33913 ft | 481 kts | 224° |
| 2026-04-28 00:45 | -1.38870 | 125.24520 | 33914 ft | 482 kts | 224° |
| 2026-04-28 00:46 | -1.43572 | 125.19670 | 33913 ft | 483 kts | 224° |
| 2026-04-28 00:46 | -1.48219 | 125.14875 | 33912 ft | 483 kts | 224° |
| 2026-04-28 00:47 | -1.52883 | 125.10064 | 33916 ft | 482 kts | 224° |
| 2026-04-28 00:47 | -1.57560 | 125.05237 | 33928 ft | 486 kts | 224° |
| 2026-04-28 00:48 | -1.62291 | 125.00355 | 33928 ft | 491 kts | 224° |
| 2026-04-28 00:48 | -1.67050 | 124.95443 | 33928 ft | 495 kts | 224° |
| 2026-04-28 00:49 | -1.71834 | 124.90508 | 33926 ft | 497 kts | 224° |
| 2026-04-28 00:49 | -1.76661 | 124.85525 | 33927 ft | 499 kts | 224° |
| 2026-04-28 00:50 | -1.81497 | 124.80535 | 33924 ft | 500 kts | 224° |
| 2026-04-28 00:50 | -1.86340 | 124.75535 | 33927 ft | 500 kts | 224° |
| 2026-04-28 00:51 | -1.91155 | 124.70505 | 33930 ft | 501 kts | 227° |
| 2026-04-28 00:51 | -1.95099 | 124.64762 | 33931 ft | 503 kts | 237° |
| 2026-04-28 00:52 | -1.98681 | 124.58750 | 33919 ft | 503 kts | 238° |
| 2026-04-28 00:52 | -2.02266 | 124.52752 | 33925 ft | 502 kts | 237° |
| 2026-04-28 00:53 | -2.05887 | 124.46787 | 33924 ft | 502 kts | 237° |
| 2026-04-28 00:53 | -2.09534 | 124.40822 | 33924 ft | 502 kts | 237° |
| 2026-04-28 00:54 | -2.13181 | 124.34864 | 33921 ft | 502 kts | 237° |
| 2026-04-28 00:54 | -2.16819 | 124.28913 | 33919 ft | 501 kts | 237° |
| 2026-04-28 00:55 | -2.20431 | 124.23000 | 33921 ft | 501 kts | 237° |
| 2026-04-28 00:55 | -2.24064 | 124.17054 | 33921 ft | 501 kts | 237° |
| 2026-04-28 00:56 | -2.27696 | 124.11107 | 33920 ft | 500 kts | 237° |
| 2026-04-28 00:56 | -2.31327 | 124.05162 | 33922 ft | 500 kts | 237° |
| 2026-04-28 00:57 | -2.34950 | 123.99228 | 33920 ft | 499 kts | 237° |
| 2026-04-28 00:57 | -2.38573 | 123.93294 | 33923 ft | 499 kts | 237° |
| 2026-04-28 00:58 | -2.42193 | 123.87366 | 33923 ft | 499 kts | 237° |
| 2026-04-28 00:58 | -2.45803 | 123.81452 | 33926 ft | 498 kts | 237° |
| 2026-04-28 00:59 | -2.49416 | 123.75533 | 33924 ft | 498 kts | 237° |
| 2026-04-28 00:59 | -2.53022 | 123.69624 | 33922 ft | 498 kts | 237° |
| 2026-04-28 01:00 | -2.56608 | 123.63746 | 33923 ft | 498 kts | 237° |
| 2026-04-28 01:00 | -2.60221 | 123.57825 | 33924 ft | 498 kts | 237° |
| 2026-04-28 01:01 | -2.63826 | 123.51915 | 33927 ft | 498 kts | 237° |
| 2026-04-28 01:01 | -2.67437 | 123.45994 | 33930 ft | 498 kts | 237° |
| 2026-04-28 01:02 | -2.71047 | 123.40075 | 33925 ft | 498 kts | 237° |
| 2026-04-28 01:02 | -2.74636 | 123.34190 | 33926 ft | 497 kts | 237° |
| 2026-04-28 01:03 | -2.78239 | 123.28280 | 33926 ft | 497 kts | 237° |
| 2026-04-28 01:03 | -2.81843 | 123.22369 | 33926 ft | 497 kts | 237° |
| 2026-04-28 01:04 | -2.85447 | 123.16456 | 33927 ft | 497 kts | 237° |
| 2026-04-28 01:04 | -2.89047 | 123.10549 | 33923 ft | 497 kts | 237° |
| 2026-04-28 01:05 | -2.92642 | 123.04649 | 33927 ft | 497 kts | 237° |
| 2026-04-28 01:05 | -2.96221 | 122.98774 | 33926 ft | 497 kts | 237° |
| 2026-04-28 01:06 | -2.99818 | 122.92868 | 33927 ft | 497 kts | 237° |
| 2026-04-28 01:06 | -3.03428 | 122.86942 | 33929 ft | 498 kts | 237° |
| 2026-04-28 01:07 | -3.07038 | 122.81013 | 33923 ft | 499 kts | 237° |
| 2026-04-28 01:07 | -3.10629 | 122.75115 | 33926 ft | 499 kts | 237° |
| 2026-04-28 01:08 | -3.14247 | 122.69171 | 33927 ft | 500 kts | 237° |
| 2026-04-28 01:08 | -3.17863 | 122.63230 | 33931 ft | 500 kts | 237° |
| 2026-04-28 01:09 | -3.21490 | 122.57269 | 33930 ft | 500 kts | 237° |
| 2026-04-28 01:09 | -3.25111 | 122.51317 | 33935 ft | 501 kts | 237° |
| 2026-04-28 01:10 | -3.28713 | 122.45393 | 33934 ft | 501 kts | 237° |
| 2026-04-28 01:10 | -3.32311 | 122.39424 | 33937 ft | 501 kts | 238° |
| 2026-04-28 01:11 | -3.35894 | 122.33449 | 33939 ft | 501 kts | 238° |
| 2026-04-28 01:11 | -3.39485 | 122.27463 | 33941 ft | 500 kts | 238° |
| 2026-04-28 01:12 | -3.43052 | 122.21522 | 33950 ft | 500 kts | 238° |
| 2026-04-28 01:12 | -3.46641 | 122.15546 | 33952 ft | 500 kts | 238° |
| 2026-04-28 01:13 | -3.50233 | 122.09564 | 33948 ft | 501 kts | 238° |
| 2026-04-28 01:13 | -3.55613 | 122.00600 | 33958 ft | 500 kts | 238° |
| 2026-04-28 01:14 | -3.59199 | 121.94625 | 33957 ft | 501 kts | 238° |
| 2026-04-28 01:14 | -3.62785 | 121.88648 | 33962 ft | 501 kts | 238° |
| 2026-04-28 01:15 | -3.66368 | 121.82675 | 33971 ft | 501 kts | 238° |
| 2026-04-28 01:15 | -3.69956 | 121.76693 | 33972 ft | 501 kts | 238° |
| 2026-04-28 01:16 | -3.73526 | 121.70740 | 33967 ft | 501 kts | 238° |
| 2026-04-28 01:16 | -3.77111 | 121.64760 | 33971 ft | 500 kts | 238° |
| 2026-04-28 01:17 | -3.80694 | 121.58782 | 33981 ft | 500 kts | 238° |
| 2026-04-28 01:17 | -3.84277 | 121.52804 | 33969 ft | 500 kts | 238° |
| 2026-04-28 01:18 | -3.87858 | 121.46827 | 33962 ft | 500 kts | 238° |
| 2026-04-28 01:18 | -3.91437 | 121.40854 | 33957 ft | 499 kts | 237° |
| 2026-04-28 01:19 | -3.94402 | 121.35903 | 33958 ft | 499 kts | 237° |
| 2026-04-28 01:19 | -3.98550 | 121.28976 | 33941 ft | 498 kts | 237° |
| 2026-04-28 01:20 | -4.02112 | 121.23027 | 33944 ft | 498 kts | 237° |
| 2026-04-28 01:20 | -4.05670 | 121.17083 | 33939 ft | 497 kts | 237° |
| 2026-04-28 01:21 | -4.09231 | 121.11133 | 33934 ft | 497 kts | 237° |
| 2026-04-28 01:21 | -4.12788 | 121.05187 | 33931 ft | 497 kts | 237° |
| 2026-04-28 01:22 | -4.16356 | 120.99224 | 34079 ft | 498 kts | 237° |
| 2026-04-28 01:22 | -4.18108 | 120.96293 | 34272 ft | 496 kts | 237° |
| 2026-04-28 01:22 | -4.19879 | 120.93331 | 34470 ft | 494 kts | 237° |
| 2026-04-28 01:23 | -4.21649 | 120.90371 | 34619 ft | 494 kts | 237° |
| 2026-04-28 01:23 | -4.23410 | 120.87425 | 34740 ft | 494 kts | 237° |
| 2026-04-28 01:23 | -4.25173 | 120.84477 | 34869 ft | 494 kts | 237° |
| 2026-04-28 01:23 | -4.26940 | 120.81521 | 35024 ft | 493 kts | 237° |
| 2026-04-28 01:24 | -4.28688 | 120.78597 | 35183 ft | 492 kts | 237° |
| 2026-04-28 01:24 | -4.30445 | 120.75657 | 35339 ft | 491 kts | 237° |
| 2026-04-28 01:24 | -4.32209 | 120.72705 | 35479 ft | 491 kts | 237° |
| 2026-04-28 01:24 | -4.33963 | 120.69769 | 35621 ft | 490 kts | 237° |
| 2026-04-28 01:25 | -4.35715 | 120.66837 | 35767 ft | 489 kts | 237° |
| 2026-04-28 01:25 | -4.37456 | 120.63923 | 35886 ft | 488 kts | 237° |
| 2026-04-28 01:25 | -4.40949 | 120.58075 | 35922 ft | 489 kts | 237° |
| 2026-04-28 01:26 | -4.43857 | 120.53206 | 35926 ft | 490 kts | 237° |
| 2026-04-28 01:26 | -4.47333 | 120.47383 | 35923 ft | 491 kts | 237° |
| 2026-04-28 01:27 | -4.50860 | 120.41474 | 35924 ft | 491 kts | 237° |
| 2026-04-28 01:27 | -4.54357 | 120.35613 | 35927 ft | 491 kts | 237° |
| 2026-04-28 01:28 | -4.57874 | 120.29718 | 35925 ft | 491 kts | 238° |
| 2026-04-28 01:28 | -4.61370 | 120.23858 | 35926 ft | 491 kts | 238° |
| 2026-04-28 01:29 | -4.64863 | 120.18000 | 35929 ft | 491 kts | 238° |
| 2026-04-28 01:29 | -4.68353 | 120.12146 | 35928 ft | 491 kts | 238° |
| 2026-04-28 01:30 | -4.71864 | 120.06255 | 35926 ft | 490 kts | 238° |
| 2026-04-28 01:30 | -4.75348 | 120.00407 | 35934 ft | 490 kts | 238° |
| 2026-04-28 01:31 | -4.78847 | 119.94535 | 35937 ft | 489 kts | 238° |
| 2026-04-28 01:31 | -4.82341 | 119.88668 | 35940 ft | 489 kts | 238° |
| 2026-04-28 01:32 | -4.85828 | 119.82811 | 35927 ft | 489 kts | 238° |
| 2026-04-28 01:32 | -4.89311 | 119.76961 | 35925 ft | 488 kts | 238° |
| 2026-04-28 01:33 | -4.92792 | 119.71111 | 35916 ft | 487 kts | 238° |
| 2026-04-28 01:33 | -4.96243 | 119.65311 | 35918 ft | 487 kts | 238° |
| 2026-04-28 01:34 | -4.99707 | 119.59486 | 35913 ft | 487 kts | 238° |
| 2026-04-28 01:34 | -5.02868 | 119.53460 | 35914 ft | 489 kts | 249° |
| 2026-04-28 01:35 | -5.04327 | 119.46812 | 35911 ft | 490 kts | 265° |
| 2026-04-28 01:35 | -5.04729 | 119.39962 | 35911 ft | 491 kts | 266° |
| 2026-04-28 01:36 | -5.05081 | 119.33160 | 35912 ft | 491 kts | 266° |
| 2026-04-28 01:36 | -5.05484 | 119.26296 | 35911 ft | 491 kts | 266° |
| 2026-04-28 01:37 | -5.05915 | 119.19486 | 35914 ft | 491 kts | 265° |
| 2026-04-28 01:37 | -5.06355 | 119.12649 | 35921 ft | 491 kts | 266° |
| 2026-04-28 01:38 | -5.06794 | 119.05800 | 35921 ft | 492 kts | 266° |
| 2026-04-28 01:38 | -5.07232 | 118.98929 | 35925 ft | 492 kts | 266° |
| 2026-04-28 01:39 | -5.07666 | 118.92077 | 35923 ft | 493 kts | 266° |
| 2026-04-28 01:39 | -5.08098 | 118.85270 | 35924 ft | 493 kts | 266° |
| 2026-04-28 01:40 | -5.08532 | 118.78401 | 35928 ft | 493 kts | 266° |
| 2026-04-28 01:40 | -5.08965 | 118.71544 | 35926 ft | 493 kts | 266° |
| 2026-04-28 01:41 | -5.09398 | 118.64672 | 35921 ft | 493 kts | 266° |
| 2026-04-28 01:41 | -5.09832 | 118.57786 | 35924 ft | 494 kts | 266° |
| 2026-04-28 01:42 | -5.10265 | 118.50883 | 35926 ft | 494 kts | 266° |
| 2026-04-28 01:42 | -5.10693 | 118.44061 | 35927 ft | 494 kts | 266° |
| 2026-04-28 01:43 | -5.11125 | 118.37158 | 35926 ft | 495 kts | 266° |
| 2026-04-28 01:43 | -5.11556 | 118.30272 | 35924 ft | 495 kts | 266° |
| 2026-04-28 01:44 | -5.11987 | 118.23364 | 35926 ft | 495 kts | 266° |
| 2026-04-28 01:44 | -5.12414 | 118.16509 | 35924 ft | 495 kts | 266° |
| 2026-04-28 01:45 | -5.12843 | 118.09602 | 35924 ft | 496 kts | 266° |
| 2026-04-28 01:45 | -5.13272 | 118.02696 | 35926 ft | 496 kts | 266° |
| 2026-04-28 01:46 | -5.13699 | 117.95794 | 35923 ft | 496 kts | 266° |
| 2026-04-28 01:46 | -5.14125 | 117.88920 | 35924 ft | 495 kts | 266° |
| 2026-04-28 01:47 | -5.14550 | 117.82023 | 35922 ft | 495 kts | 266° |
| 2026-04-28 01:47 | -5.14975 | 117.75136 | 35924 ft | 495 kts | 266° |
| 2026-04-28 01:48 | -5.15399 | 117.68245 | 35923 ft | 494 kts | 266° |
| 2026-04-28 01:48 | -5.15822 | 117.61363 | 35922 ft | 494 kts | 266° |
| 2026-04-28 01:49 | -5.16245 | 117.54464 | 35923 ft | 494 kts | 266° |
| 2026-04-28 01:49 | -5.16665 | 117.47598 | 35923 ft | 493 kts | 266° |
| 2026-04-28 01:50 | -5.17083 | 117.40754 | 35920 ft | 493 kts | 266° |
| 2026-04-28 01:50 | -5.17502 | 117.33881 | 35923 ft | 493 kts | 266° |
| 2026-04-28 01:51 | -5.17920 | 117.27019 | 35923 ft | 493 kts | 266° |
| 2026-04-28 01:51 | -5.18337 | 117.20159 | 35925 ft | 492 kts | 266° |
| 2026-04-28 01:52 | -5.18753 | 117.13300 | 35922 ft | 492 kts | 266° |
| 2026-04-28 01:52 | -5.19166 | 117.06470 | 35920 ft | 492 kts | 266° |
| 2026-04-28 01:53 | -5.19662 | 116.99621 | 35920 ft | 492 kts | 264° |
| 2026-04-28 01:53 | -5.20466 | 116.92809 | 35920 ft | 492 kts | 262° |
| 2026-04-28 01:54 | -5.21338 | 116.85993 | 35920 ft | 492 kts | 262° |
| 2026-04-28 01:54 | -5.22176 | 116.79191 | 35920 ft | 491 kts | 263° |
| 2026-04-28 01:55 | -5.22987 | 116.72383 | 35921 ft | 491 kts | 263° |
| 2026-04-28 01:55 | -5.23788 | 116.65579 | 35916 ft | 491 kts | 263° |
| 2026-04-28 01:56 | -5.24590 | 116.58767 | 35920 ft | 491 kts | 263° |
| 2026-04-28 01:56 | -5.25392 | 116.51962 | 35920 ft | 491 kts | 263° |
| 2026-04-28 01:57 | -5.26188 | 116.45208 | 35921 ft | 490 kts | 263° |
| 2026-04-28 01:57 | -5.26988 | 116.38409 | 35923 ft | 490 kts | 263° |
| 2026-04-28 01:58 | -5.27788 | 116.31608 | 35916 ft | 490 kts | 263° |
| 2026-04-28 01:58 | -5.28586 | 116.24817 | 35917 ft | 490 kts | 263° |
| 2026-04-28 01:59 | -5.29383 | 116.18027 | 35918 ft | 490 kts | 263° |
| 2026-04-28 01:59 | -5.30178 | 116.11249 | 35919 ft | 489 kts | 263° |
| 2026-04-28 02:00 | -5.30974 | 116.04459 | 35913 ft | 489 kts | 263° |
| 2026-04-28 02:00 | -5.31768 | 115.97675 | 35923 ft | 489 kts | 263° |
| 2026-04-28 02:01 | -5.32553 | 115.90963 | 35924 ft | 489 kts | 263° |
| 2026-04-28 02:01 | -5.33346 | 115.84172 | 35919 ft | 489 kts | 263° |
| 2026-04-28 02:02 | -5.34138 | 115.77391 | 35919 ft | 488 kts | 263° |
| 2026-04-28 02:02 | -5.34927 | 115.70623 | 35916 ft | 488 kts | 263° |
| 2026-04-28 02:03 | -5.35715 | 115.63852 | 35915 ft | 488 kts | 263° |
| 2026-04-28 02:03 | -5.36503 | 115.57086 | 35915 ft | 488 kts | 263° |
| 2026-04-28 02:04 | -5.37290 | 115.50314 | 35918 ft | 488 kts | 263° |
| 2026-04-28 02:04 | -5.38076 | 115.43553 | 35920 ft | 488 kts | 263° |
| 2026-04-28 02:05 | -5.38856 | 115.36830 | 35917 ft | 488 kts | 263° |
| 2026-04-28 02:05 | -5.39640 | 115.30065 | 35919 ft | 488 kts | 263° |
| 2026-04-28 02:06 | -5.40423 | 115.23303 | 35915 ft | 488 kts | 263° |
| 2026-04-28 02:06 | -5.41207 | 115.16527 | 35915 ft | 488 kts | 263° |
| 2026-04-28 02:07 | -5.41990 | 115.09750 | 35918 ft | 488 kts | 263° |
| 2026-04-28 02:07 | -5.42772 | 115.02982 | 35910 ft | 489 kts | 263° |
| 2026-04-28 02:08 | -5.43553 | 114.96207 | 35914 ft | 489 kts | 263° |
| 2026-04-28 02:08 | -5.44335 | 114.89425 | 35914 ft | 489 kts | 263° |
| 2026-04-28 02:09 | -5.45111 | 114.82684 | 35914 ft | 489 kts | 263° |
| 2026-04-28 02:09 | -5.45891 | 114.75904 | 35914 ft | 490 kts | 263° |
| 2026-04-28 02:10 | -5.46546 | 114.70204 | 35916 ft | 490 kts | 263° |
| 2026-04-28 02:10 | -5.47321 | 114.63449 | 35916 ft | 490 kts | 263° |
| 2026-04-28 02:11 | -5.48100 | 114.56654 | 35917 ft | 490 kts | 263° |
| 2026-04-28 02:11 | -5.48881 | 114.49837 | 35911 ft | 491 kts | 263° |
| 2026-04-28 02:12 | -5.49660 | 114.43036 | 35915 ft | 491 kts | 263° |
| 2026-04-28 02:12 | -5.50440 | 114.36210 | 35915 ft | 491 kts | 263° |
| 2026-04-28 02:13 | -5.51218 | 114.29399 | 35916 ft | 492 kts | 263° |
| 2026-04-28 02:13 | -5.51997 | 114.22576 | 35916 ft | 492 kts | 263° |
| 2026-04-28 02:14 | -5.52775 | 114.15749 | 35913 ft | 492 kts | 263° |
| 2026-04-28 02:14 | -5.53547 | 114.08965 | 35914 ft | 492 kts | 263° |
| 2026-04-28 02:15 | -5.54712 | 113.98724 | 35916 ft | 492 kts | 263° |
| 2026-04-28 02:16 | -5.55521 | 113.91898 | 35916 ft | 492 kts | 263° |
| 2026-04-28 02:16 | -5.56346 | 113.85075 | 35912 ft | 492 kts | 263° |
| 2026-04-28 02:17 | -5.57167 | 113.78245 | 35912 ft | 492 kts | 263° |
| 2026-04-28 02:17 | -5.57982 | 113.71428 | 35912 ft | 492 kts | 263° |
| 2026-04-28 02:18 | -5.58796 | 113.64604 | 35913 ft | 492 kts | 263° |
| 2026-04-28 02:18 | -5.59608 | 113.57782 | 35912 ft | 492 kts | 263° |
| 2026-04-28 02:19 | -5.60420 | 113.50955 | 35912 ft | 492 kts | 263° |
| 2026-04-28 02:19 | -5.61231 | 113.44138 | 35913 ft | 491 kts | 263° |
| 2026-04-28 02:20 | -5.62034 | 113.37371 | 35912 ft | 491 kts | 263° |
| 2026-04-28 02:20 | -5.62842 | 113.30565 | 35911 ft | 491 kts | 263° |
| 2026-04-28 02:21 | -5.63649 | 113.23760 | 35913 ft | 491 kts | 263° |
| 2026-04-28 02:21 | -5.64453 | 113.16967 | 35911 ft | 490 kts | 263° |
| 2026-04-28 02:22 | -5.65258 | 113.10166 | 35913 ft | 490 kts | 263° |
| 2026-04-28 02:22 | -5.66062 | 113.03361 | 35913 ft | 490 kts | 263° |
| 2026-04-28 02:23 | -5.66864 | 112.96561 | 35911 ft | 490 kts | 263° |
| 2026-04-28 02:23 | -5.67668 | 112.89749 | 35913 ft | 490 kts | 263° |
| 2026-04-28 02:24 | -5.68469 | 112.82948 | 35912 ft | 490 kts | 263° |
| 2026-04-28 02:24 | -5.69270 | 112.76141 | 35911 ft | 491 kts | 263° |
| 2026-04-28 02:25 | -5.70064 | 112.69386 | 35908 ft | 491 kts | 264° |
| 2026-04-28 02:25 | -5.70865 | 112.62573 | 35909 ft | 491 kts | 264° |
| 2026-04-28 02:26 | -5.71666 | 112.55746 | 35911 ft | 491 kts | 264° |
| 2026-04-28 02:26 | -5.72458 | 112.48982 | 35909 ft | 491 kts | 264° |
| 2026-04-28 02:27 | -5.73262 | 112.42122 | 35906 ft | 491 kts | 264° |
| 2026-04-28 02:27 | -5.74059 | 112.35309 | 35910 ft | 491 kts | 264° |
| 2026-04-28 02:28 | -5.74850 | 112.28535 | 35909 ft | 491 kts | 264° |
| 2026-04-28 02:28 | -5.75645 | 112.21728 | 35910 ft | 491 kts | 264° |
| 2026-04-28 02:29 | -5.76439 | 112.14918 | 35911 ft | 491 kts | 264° |
| 2026-04-28 02:29 | -5.77232 | 112.08107 | 35906 ft | 491 kts | 264° |
| 2026-04-28 02:30 | -5.78024 | 112.01300 | 35907 ft | 490 kts | 264° |
| 2026-04-28 02:30 | -5.78814 | 111.94500 | 35912 ft | 490 kts | 264° |
| 2026-04-28 02:31 | -5.79605 | 111.87692 | 35913 ft | 490 kts | 264° |
| 2026-04-28 02:31 | -5.80388 | 111.80939 | 35908 ft | 490 kts | 264° |
| 2026-04-28 02:32 | -5.81177 | 111.74129 | 35908 ft | 490 kts | 264° |
| 2026-04-28 02:32 | -5.81965 | 111.67324 | 35908 ft | 490 kts | 264° |
| 2026-04-28 02:33 | -5.82751 | 111.60527 | 35906 ft | 490 kts | 264° |
| 2026-04-28 02:33 | -5.83535 | 111.53735 | 35908 ft | 490 kts | 264° |
| 2026-04-28 02:34 | -5.84320 | 111.46935 | 35906 ft | 490 kts | 264° |
| 2026-04-28 02:34 | -5.85102 | 111.40148 | 35907 ft | 489 kts | 264° |
| 2026-04-28 02:35 | -5.85884 | 111.33353 | 35909 ft | 489 kts | 264° |
| 2026-04-28 02:35 | -5.86664 | 111.26567 | 35913 ft | 489 kts | 264° |
| 2026-04-28 02:36 | -5.87438 | 111.19819 | 35913 ft | 489 kts | 264° |
| 2026-04-28 02:36 | -5.88199 | 111.13033 | 35911 ft | 489 kts | 264° |
| 2026-04-28 02:37 | -5.88954 | 111.06248 | 35911 ft | 489 kts | 264° |
| 2026-04-28 02:37 | -5.89710 | 110.99465 | 35911 ft | 488 kts | 264° |
| 2026-04-28 02:38 | -5.90466 | 110.92679 | 35911 ft | 488 kts | 264° |
| 2026-04-28 02:38 | -5.91222 | 110.85900 | 35913 ft | 488 kts | 264° |
| 2026-04-28 02:39 | -5.91976 | 110.79125 | 35911 ft | 488 kts | 264° |
| 2026-04-28 02:39 | -5.92729 | 110.72350 | 35913 ft | 488 kts | 264° |
| 2026-04-28 02:40 | -5.93480 | 110.65584 | 35914 ft | 487 kts | 264° |
| 2026-04-28 02:40 | -5.94232 | 110.58805 | 35911 ft | 487 kts | 264° |
| 2026-04-28 02:41 | -5.94977 | 110.52079 | 35916 ft | 487 kts | 264° |
| 2026-04-28 02:41 | -5.95725 | 110.45313 | 35911 ft | 487 kts | 264° |
| 2026-04-28 02:42 | -5.96467 | 110.38548 | 35907 ft | 487 kts | 265° |
| 2026-04-28 02:42 | -5.96665 | 110.31765 | 35916 ft | 486 kts | 271° |
| 2026-04-28 02:43 | -5.96583 | 110.24975 | 35910 ft | 486 kts | 271° |
| 2026-04-28 02:43 | -5.96513 | 110.18184 | 35912 ft | 485 kts | 270° |
| 2026-04-28 02:44 | -5.96491 | 110.11404 | 35914 ft | 485 kts | 270° |
| 2026-04-28 02:44 | -5.96489 | 110.04631 | 35916 ft | 485 kts | 270° |
| 2026-04-28 02:45 | -5.96490 | 109.97854 | 35916 ft | 485 kts | 270° |
| 2026-04-28 02:45 | -5.96487 | 109.91124 | 35913 ft | 484 kts | 270° |
| 2026-04-28 02:46 | -5.96482 | 109.84357 | 35912 ft | 484 kts | 270° |
| 2026-04-28 02:46 | -5.96476 | 109.77598 | 35914 ft | 484 kts | 270° |
| 2026-04-28 02:47 | -5.96469 | 109.70845 | 35915 ft | 484 kts | 270° |
| 2026-04-28 02:47 | -5.96461 | 109.64092 | 35916 ft | 483 kts | 270° |
| 2026-04-28 02:48 | -5.96453 | 109.57340 | 35912 ft | 483 kts | 270° |
| 2026-04-28 02:48 | -5.96443 | 109.50591 | 35914 ft | 483 kts | 270° |
| 2026-04-28 02:49 | -5.96433 | 109.43843 | 35914 ft | 483 kts | 270° |
| 2026-04-28 02:49 | -5.96422 | 109.37104 | 35916 ft | 483 kts | 270° |
| 2026-04-28 02:50 | -5.96410 | 109.30357 | 35916 ft | 483 kts | 270° |
| 2026-04-28 02:50 | -5.96398 | 109.23605 | 35915 ft | 483 kts | 270° |
| 2026-04-28 02:51 | -5.96385 | 109.17241 | 35913 ft | 483 kts | 270° |
| 2026-04-28 02:51 | -5.96371 | 109.10483 | 35913 ft | 484 kts | 270° |
| 2026-04-28 02:52 | -5.96357 | 109.03751 | 35864 ft | 477 kts | 270° |
| 2026-04-28 02:52 | -5.96347 | 108.98252 | 35851 ft | 471 kts | 270° |
| 2026-04-28 02:53 | -5.96333 | 108.91647 | 35854 ft | 474 kts | 270° |
| 2026-04-28 02:53 | -5.96316 | 108.83907 | 35404 ft | 483 kts | 270° |
| 2026-04-28 02:53 | -5.96311 | 108.81667 | 35223 ft | 484 kts | 270° |
| 2026-04-28 02:54 | -5.96300 | 108.77110 | 34572 ft | 489 kts | 270° |
| 2026-04-28 02:54 | -5.96295 | 108.74863 | 34432 ft | 482 kts | 270° |
| 2026-04-28 02:54 | -5.96287 | 108.71528 | 33875 ft | 478 kts | 270° |
| 2026-04-28 02:54 | -5.96278 | 108.68200 | 33297 ft | 475 kts | 270° |
| 2026-04-28 02:55 | -5.96270 | 108.64881 | 32747 ft | 472 kts | 270° |
| 2026-04-28 02:55 | -5.96261 | 108.61588 | 32278 ft | 468 kts | 270° |
| 2026-04-28 02:55 | -5.96252 | 108.58340 | 31812 ft | 463 kts | 270° |
| 2026-04-28 02:55 | -5.96243 | 108.55124 | 31354 ft | 459 kts | 270° |
| 2026-04-28 02:56 | -5.96234 | 108.51912 | 30897 ft | 456 kts | 270° |
| 2026-04-28 02:56 | -5.96225 | 108.48731 | 30432 ft | 453 kts | 270° |
| 2026-04-28 02:56 | -5.96218 | 108.45581 | 29966 ft | 450 kts | 270° |
| 2026-04-28 02:56 | -5.96214 | 108.42448 | 29448 ft | 447 kts | 270° |
| 2026-04-28 02:57 | -5.96213 | 108.39379 | 28965 ft | 442 kts | 270° |
| 2026-04-28 02:57 | -5.96211 | 108.36302 | 28495 ft | 438 kts | 270° |
| 2026-04-28 02:57 | -5.96209 | 108.33261 | 28033 ft | 434 kts | 270° |
| 2026-04-28 02:57 | -5.96207 | 108.30236 | 27585 ft | 430 kts | 270° |
| 2026-04-28 02:58 | -5.96204 | 108.27251 | 27137 ft | 426 kts | 269° |
| 2026-04-28 02:58 | -5.96201 | 108.24278 | 26693 ft | 422 kts | 269° |
| 2026-04-28 02:58 | -5.96197 | 108.21342 | 26254 ft | 419 kts | 269° |
| 2026-04-28 02:58 | -5.96194 | 108.18422 | 25818 ft | 416 kts | 269° |
| 2026-04-28 02:59 | -5.96190 | 108.15534 | 25376 ft | 413 kts | 269° |
| 2026-04-28 02:59 | -5.96187 | 108.12654 | 24938 ft | 411 kts | 269° |
| 2026-04-28 02:59 | -5.96183 | 108.09794 | 24490 ft | 409 kts | 269° |
| 2026-04-28 02:59 | -5.96179 | 108.06945 | 24057 ft | 407 kts | 269° |
| 2026-04-28 03:00 | -5.96175 | 108.04148 | 23652 ft | 404 kts | 269° |
| 2026-04-28 03:00 | -5.96171 | 108.01332 | 23152 ft | 402 kts | 269° |
| 2026-04-28 03:00 | -5.96166 | 107.98551 | 22902 ft | 393 kts | 269° |
| 2026-04-28 03:00 | -5.96165 | 107.95804 | 22360 ft | 393 kts | 269° |
| 2026-04-28 03:01 | -5.96165 | 107.93062 | 21882 ft | 391 kts | 269° |
| 2026-04-28 03:01 | -5.96167 | 107.90326 | 21410 ft | 390 kts | 269° |
| 2026-04-28 03:01 | -5.96168 | 107.87580 | 20928 ft | 389 kts | 269° |
| 2026-04-28 03:01 | -5.96169 | 107.84899 | 20457 ft | 388 kts | 269° |
| 2026-04-28 03:02 | -5.96169 | 107.82190 | 19979 ft | 387 kts | 269° |
| 2026-04-28 03:02 | -5.96169 | 107.79484 | 19490 ft | 387 kts | 269° |
| 2026-04-28 03:02 | -5.96169 | 107.76810 | 19001 ft | 380 kts | 269° |
| 2026-04-28 03:02 | -5.96168 | 107.74179 | 18537 ft | 371 kts | 269° |
| 2026-04-28 03:03 | -5.96168 | 107.71605 | 18059 ft | 365 kts | 269° |
| 2026-04-28 03:03 | -5.96168 | 107.69059 | 17578 ft | 365 kts | 269° |
| 2026-04-28 03:03 | -5.96167 | 107.66512 | 17112 ft | 364 kts | 269° |
| 2026-04-28 03:03 | -5.96211 | 107.63975 | 16654 ft | 363 kts | 266° |
| 2026-04-28 03:04 | -5.96394 | 107.61444 | 16206 ft | 362 kts | 264° |
| 2026-04-28 03:04 | -5.96633 | 107.58947 | 15757 ft | 361 kts | 263° |
| 2026-04-28 03:04 | -5.96885 | 107.56440 | 15318 ft | 361 kts | 263° |
| 2026-04-28 03:04 | -5.97136 | 107.53929 | 14866 ft | 361 kts | 263° |
| 2026-04-28 03:05 | -5.97379 | 107.51420 | 14415 ft | 360 kts | 264° |
| 2026-04-28 03:05 | -5.97617 | 107.48910 | 13962 ft | 360 kts | 264° |
| 2026-04-28 03:05 | -5.97849 | 107.46407 | 13490 ft | 360 kts | 264° |
| 2026-04-28 03:05 | -5.98078 | 107.43903 | 13015 ft | 359 kts | 264° |
| 2026-04-28 03:06 | -5.98304 | 107.41423 | 12592 ft | 350 kts | 264° |
| 2026-04-28 03:06 | -5.98520 | 107.39027 | 12180 ft | 339 kts | 264° |
| 2026-04-28 03:06 | -5.98727 | 107.36735 | 11778 ft | 330 kts | 264° |
| 2026-04-28 03:06 | -5.98933 | 107.34454 | 11384 ft | 325 kts | 264° |
| 2026-04-28 03:07 | -5.99137 | 107.32198 | 10995 ft | 324 kts | 264° |
| 2026-04-28 03:07 | -5.99337 | 107.29987 | 10612 ft | 324 kts | 264° |
| 2026-04-28 03:07 | -5.99514 | 107.28024 | 10251 ft | 322 kts | 264° |
| 2026-04-28 03:07 | -5.99713 | 107.25815 | 9891 ft | 314 kts | 264° |
| 2026-04-28 03:08 | -5.99904 | 107.23698 | 9785 ft | 296 kts | 264° |
| 2026-04-28 03:08 | -6.00091 | 107.21611 | 9154 ft | 300 kts | 264° |
| 2026-04-28 03:08 | -6.00278 | 107.19534 | 8698 ft | 296 kts | 264° |
| 2026-04-28 03:08 | -6.00460 | 107.17517 | 8323 ft | 290 kts | 264° |
| 2026-04-28 03:09 | -6.00640 | 107.15516 | 7958 ft | 285 kts | 264° |
| 2026-04-28 03:09 | -6.00816 | 107.13557 | 7616 ft | 280 kts | 264° |
| 2026-04-28 03:09 | -6.00960 | 107.11957 | 7335 ft | 279 kts | 264° |
| 2026-04-28 03:09 | -6.01135 | 107.10007 | 6995 ft | 281 kts | 264° |
| 2026-04-28 03:10 | -6.01313 | 107.08032 | 6635 ft | 285 kts | 264° |
| 2026-04-28 03:10 | -6.01491 | 107.06049 | 6283 ft | 287 kts | 264° |
| 2026-04-28 03:10 | -6.01671 | 107.04036 | 5896 ft | 289 kts | 264° |
| 2026-04-28 03:10 | -6.01852 | 107.02019 | 5525 ft | 290 kts | 264° |
| 2026-04-28 03:11 | -6.02034 | 106.99994 | 5164 ft | 291 kts | 264° |
| 2026-04-28 03:11 | -6.02214 | 106.97990 | 4804 ft | 292 kts | 264° |
| 2026-04-28 03:11 | -6.02398 | 106.95935 | 4423 ft | 289 kts | 264° |
| 2026-04-28 03:11 | -6.02579 | 106.93973 | 4070 ft | 281 kts | 262° |
| 2026-04-28 03:12 | -6.03073 | 106.92152 | 3996 ft | 262 kts | 246° |
| 2026-04-28 03:12 | -6.03801 | 106.90549 | 3975 ft | 242 kts | 244° |
| 2026-04-28 03:12 | -6.04453 | 106.89066 | 3906 ft | 223 kts | 246° |
| 2026-04-28 03:12 | -6.05021 | 106.87674 | 3722 ft | 209 kts | 247° |
| 2026-04-28 03:13 | -6.05545 | 106.86358 | 3557 ft | 196 kts | 247° |
| 2026-04-28 03:13 | -6.06033 | 106.85123 | 3438 ft | 185 kts | 247° |
| 2026-04-28 03:13 | -6.06512 | 106.83912 | 3314 ft | 192 kts | 247° |
| 2026-04-28 03:13 | -6.07008 | 106.82659 | 3086 ft | 192 kts | 247° |
| 2026-04-28 03:14 | -6.07493 | 106.81433 | 2836 ft | 189 kts | 247° |
| 2026-04-28 03:14 | -6.07976 | 106.80213 | 2603 ft | 186 kts | 248° |
| 2026-04-28 03:14 | -6.08447 | 106.79022 | 2378 ft | 181 kts | 248° |
| 2026-04-28 03:14 | -6.08902 | 106.77870 | 2157 ft | 170 kts | 248° |
| 2026-04-28 03:15 | -6.09323 | 106.76807 | 1954 ft | 161 kts | 248° |
| 2026-04-28 03:15 | -6.09736 | 106.75763 | 1734 ft | 160 kts | 248° |